Billund, Denmark
Current Conditions -  °F | °C
As of 8:20 PM on Saturday 25 Oct 2014 (Local Time) from EKBI Reporting Station
Broken Clouds Broken Clouds  
Wind Chill: 50°   Ceiling: 5000
Heat Index: 50°   Visibility: 6mi
Dew Point: 46°   Wind: 6mph
Humidity: 87%   Direction: 180°S
Pressure: 30"   Gusts: NA
Location:  55.73°N, 9.11°E
Report Text: EKBI 251820Z AUTO 18005KT 9999NDV BKN050/// 10/08 Q1016
Loading
Personal Weather Stations






























Interactive Weather Map
Tropical Storm Tracking
New forecast layout! Learn more

10-Day Weather Forecast

Advertisements
Track Severe Weather on mobile